createdAt,value
2019-04-07T00:00:36.092Z,7.00
2019-04-07T00:05:41.472Z,7.00
2019-04-07T00:10:46.872Z,7.00
2019-04-07T00:15:51.972Z,6.90
2019-04-07T00:20:56.737Z,6.80
2019-04-07T00:26:02.218Z,6.70
2019-04-07T00:31:07.095Z,6.70
2019-04-07T00:36:11.853Z,6.60
2019-04-07T00:41:16.746Z,6.50
2019-04-07T00:46:21.850Z,6.50
2019-04-07T00:51:26.760Z,6.40
2019-04-07T00:56:31.843Z,6.30
2019-04-07T01:01:37.181Z,6.20
2019-04-07T01:06:42.254Z,6.20
2019-04-07T01:11:47.443Z,6.20
2019-04-07T01:16:52.951Z,6.10
2019-04-07T01:21:58.993Z,6.00
2019-04-07T01:27:05.072Z,6.00
2019-04-07T01:32:10.318Z,5.90
2019-04-07T01:37:15.560Z,5.90
2019-04-07T01:42:25.576Z,5.80
2019-04-07T01:47:32.302Z,5.80
2019-04-07T01:52:53.580Z,5.70
2019-04-07T01:58:06.340Z,5.70
2019-04-07T02:03:13.216Z,5.60
2019-04-07T02:13:47.438Z,5.50
2019-04-07T02:19:02.850Z,5.40
2019-04-07T02:24:13.122Z,5.30
2019-04-07T02:29:35.897Z,5.30
2019-04-07T02:34:45.538Z,5.20
2019-04-07T02:39:52.350Z,5.20
2019-04-07T02:45:15.278Z,5.10
2019-04-07T02:50:27.757Z,5.00
2019-04-07T02:55:34.244Z,4.90
2019-04-07T03:00:57.735Z,4.80
2019-04-07T03:06:37.481Z,4.80
2019-04-07T03:11:31.389Z,4.70
2019-04-07T03:16:41.688Z,4.70
2019-04-07T03:22:03.692Z,4.70
2019-04-07T03:27:28.469Z,4.60
2019-04-07T03:32:54.081Z,4.50
2019-04-07T03:38:18.784Z,4.40
2019-04-07T03:43:31.731Z,4.30
2019-04-07T03:48:44.521Z,4.30
2019-04-07T03:53:56.018Z,4.20
2019-04-07T03:59:11.482Z,4.20
2019-04-07T04:04:18.888Z,4.10
2019-04-07T04:09:42.543Z,4.00
2019-04-07T04:15:01.739Z,4.00
2019-04-07T04:20:08.346Z,3.80
2019-04-07T04:25:13.814Z,3.80
2019-04-07T04:30:18.992Z,3.70
2019-04-07T04:35:24.588Z,3.70
2019-04-07T04:40:29.839Z,3.70
2019-04-07T04:45:36.266Z,3.80
2019-04-07T04:50:42.043Z,3.90
2019-04-07T04:55:47.276Z,3.90
2019-04-07T05:00:52.383Z,4.00
2019-04-07T05:05:57.796Z,4.10
2019-04-07T05:11:03.076Z,4.10
2019-04-07T05:16:08.308Z,4.30
2019-04-07T05:21:13.497Z,4.40
2019-04-07T05:26:18.859Z,4.50
2019-04-07T05:31:23.824Z,4.70
2019-04-07T05:36:28.649Z,4.80
2019-04-07T05:41:33.755Z,4.90
2019-04-07T05:46:42.334Z,5.10
2019-04-07T05:51:45.390Z,5.30
2019-04-07T05:56:50.320Z,5.60
2019-04-07T06:01:59.767Z,5.90
2019-04-07T06:07:01.847Z,6.20
2019-04-07T06:12:09.619Z,6.80
2019-04-07T06:17:13.575Z,7.40
2019-04-07T06:22:20.683Z,7.70
2019-04-07T06:27:24.805Z,8.10
2019-04-07T06:32:29.953Z,8.50
2019-04-07T06:37:36.274Z,8.90
2019-04-07T06:42:43.658Z,9.20
2019-04-07T06:47:59.374Z,9.50
2019-04-07T06:53:20.650Z,9.70
2019-04-07T06:58:38.805Z,9.90
2019-04-07T07:03:59.400Z,10.00
2019-04-07T07:09:15.534Z,10.20
2019-04-07T07:14:34.897Z,10.50
2019-04-07T07:19:55.643Z,10.60
2019-04-07T07:25:01.000Z,10.80
2019-04-07T07:30:07.737Z,11.10
2019-04-07T07:35:15.166Z,11.40
2019-04-07T07:40:19.282Z,11.40
2019-04-07T07:45:24.119Z,11.60
2019-04-07T07:50:29.917Z,11.90
2019-04-07T07:55:37.631Z,12.20
2019-04-07T08:00:43.336Z,12.50
2019-04-07T08:05:48.705Z,12.70
2019-04-07T08:10:56.166Z,12.90
2019-04-07T08:16:00.550Z,13.20
2019-04-07T08:21:05.650Z,13.50
2019-04-07T08:26:11.733Z,13.90
2019-04-07T08:31:21.105Z,14.20
2019-04-07T08:36:23.879Z,14.40
2019-04-07T08:41:28.874Z,14.60
2019-04-07T08:46:38.636Z,14.80
2019-04-07T08:51:40.423Z,15.10
2019-04-07T08:56:45.757Z,15.40
2019-04-07T09:01:52.782Z,15.50
2019-04-07T09:07:00.692Z,15.50
2019-04-07T09:12:03.888Z,15.80
2019-04-07T09:17:10.561Z,16.20
2019-04-07T09:22:32.741Z,16.10
2019-04-07T09:27:55.804Z,16.10
2019-04-07T09:33:05.961Z,16.50
2019-04-07T09:38:30.805Z,16.60
2019-04-07T09:43:46.515Z,16.70
2019-04-07T09:48:58.825Z,16.90
2019-04-07T09:54:08.201Z,17.00
2019-04-07T09:59:31.859Z,17.20
2019-04-07T10:04:54.804Z,17.50
2019-04-07T10:10:17.409Z,17.50
2019-04-07T10:15:24.523Z,17.50
2019-04-07T10:20:47.335Z,17.70
2019-04-07T10:25:57.247Z,18.10
2019-04-07T10:31:09.668Z,18.00
2019-04-07T10:36:22.788Z,18.40
2019-04-07T10:41:29.509Z,18.20
2019-04-07T10:46:52.185Z,18.10
2019-04-07T10:51:59.302Z,18.90
2019-04-07T10:57:06.548Z,19.00
2019-04-07T11:02:15.572Z,19.00
2019-04-07T11:07:28.208Z,19.20
2019-04-07T11:12:41.232Z,19.10
2019-04-07T11:18:04.476Z,19.00
2019-04-07T11:23:10.894Z,19.10
2019-04-07T11:28:20.835Z,19.50
2019-04-07T11:33:27.835Z,19.40
2019-04-07T11:38:46.832Z,19.60
2019-04-07T11:43:56.416Z,19.80
2019-04-07T11:49:19.401Z,19.50
2019-04-07T11:54:26.297Z,19.70
2019-04-07T11:59:51.279Z,20.20
2019-04-07T12:05:08.131Z,20.30
2019-04-07T12:10:33.194Z,20.00
2019-04-07T12:15:43.015Z,20.20
2019-04-07T12:20:56.257Z,20.20
2019-04-07T12:26:20.404Z,20.30
2019-04-07T12:31:36.179Z,20.20
2019-04-07T12:37:02.403Z,20.30
2019-04-07T12:42:13.565Z,20.40
2019-04-07T12:47:36.616Z,20.20
2019-04-07T12:52:43.085Z,19.70
2019-04-07T12:58:10.795Z,19.60
2019-04-07T13:03:33.183Z,20.10
2019-04-07T13:08:40.379Z,20.40
2019-04-07T13:13:53.099Z,20.70
2019-04-07T13:19:04.253Z,20.60
2019-04-07T13:24:12.920Z,20.40
2019-04-07T13:29:18.877Z,20.40
2019-04-07T13:34:41.731Z,20.20
2019-04-07T13:40:10.142Z,20.10
2019-04-07T13:45:24.777Z,20.10
2019-04-07T13:50:48.188Z,19.80
2019-04-07T13:56:16.657Z,19.50
2019-04-07T14:01:23.294Z,19.70
2019-04-07T14:06:32.869Z,19.90
2019-04-07T14:11:53.809Z,19.90
2019-04-07T14:17:06.286Z,20.00
2019-04-07T14:22:16.669Z,20.00
2019-04-07T14:27:38.433Z,20.10
2019-04-07T14:32:53.598Z,19.90
2019-04-07T14:38:03.710Z,19.70
2019-04-07T14:43:19.096Z,19.60
2019-04-07T14:48:34.805Z,19.80
2019-04-07T14:53:44.201Z,19.80
2019-04-07T14:58:53.922Z,19.70
2019-04-07T15:03:59.947Z,19.80
2019-04-07T15:09:10.649Z,19.70
2019-04-07T15:14:15.694Z,19.70
2019-04-07T15:19:20.483Z,19.60
2019-04-07T15:24:25.979Z,19.50
2019-04-07T15:29:31.080Z,19.50
2019-04-07T15:34:39.558Z,19.50
2019-04-07T15:39:42.781Z,19.30
2019-04-07T15:44:48.407Z,19.20
2019-04-07T15:49:54.082Z,19.30
2019-04-07T15:55:11.575Z,19.10
2019-04-07T16:00:19.530Z,19.00
2019-04-07T16:05:24.552Z,18.90
2019-04-07T16:10:30.168Z,18.70
2019-04-07T16:15:35.979Z,18.60
2019-04-07T16:20:41.695Z,18.50
2019-04-07T16:25:47.443Z,18.30
2019-04-07T16:30:52.493Z,18.20
2019-04-07T16:35:57.978Z,18.00
2019-04-07T16:41:02.945Z,17.90
2019-04-07T16:46:07.797Z,17.80
2019-04-07T16:51:13.415Z,17.70
2019-04-07T16:56:20.107Z,17.50
2019-04-07T17:01:25.730Z,17.20
2019-04-07T17:06:34.670Z,17.10
2019-04-07T17:11:40.718Z,16.90
2019-04-07T17:16:45.619Z,16.60
2019-04-07T17:21:51.825Z,16.30
2019-04-07T17:26:58.522Z,16.10
2019-04-07T17:32:06.027Z,15.80
2019-04-07T17:37:11.766Z,15.50
2019-04-07T17:42:20.171Z,15.20
2019-04-07T17:47:39.689Z,15.00
2019-04-07T17:53:03.059Z,14.70
2019-04-07T17:58:26.304Z,14.40
2019-04-07T18:03:39.077Z,14.20
2019-04-07T18:09:07.855Z,13.90
2019-04-07T18:14:15.856Z,13.70
2019-04-07T18:19:38.824Z,13.50
2019-04-07T18:24:48.701Z,13.30
2019-04-07T18:29:59.669Z,13.10
2019-04-07T18:35:20.066Z,12.90
2019-04-07T18:40:41.396Z,12.70
2019-04-07T18:45:49.086Z,12.50
2019-04-07T18:50:56.362Z,12.30
2019-04-07T18:56:09.850Z,12.10
2019-04-07T19:01:17.024Z,12.00
2019-04-07T19:06:23.715Z,11.80
2019-04-07T19:11:48.638Z,11.60
2019-04-07T19:17:11.518Z,11.50
2019-04-07T19:22:36.662Z,11.20
2019-04-07T19:28:02.371Z,11.10
2019-04-07T19:33:06.790Z,10.90
2019-04-07T19:38:27.352Z,10.80
2019-04-07T19:43:46.196Z,10.70
2019-04-07T19:48:52.693Z,10.60
2019-04-07T19:54:00.682Z,10.60
2019-04-07T19:59:19.592Z,10.50
2019-04-07T20:04:40.163Z,10.40
2019-04-07T20:10:03.103Z,10.40
2019-04-07T20:15:29.583Z,10.40
2019-04-07T20:20:42.036Z,10.70
2019-04-07T20:25:55.627Z,10.90
2019-04-07T20:31:09.092Z,10.80
2019-04-07T20:36:22.145Z,10.90
2019-04-07T20:41:23.962Z,10.90
2019-04-07T20:46:46.834Z,10.90
2019-04-07T20:52:11.289Z,10.80
2019-04-07T20:57:34.165Z,10.70
2019-04-07T21:02:46.481Z,10.60
2019-04-07T21:08:09.103Z,10.60
2019-04-07T21:13:24.876Z,10.50
2019-04-07T21:18:40.732Z,10.50
2019-04-07T21:23:48.025Z,10.40
2019-04-07T21:28:54.812Z,10.30
2019-04-07T21:34:07.001Z,10.10
2019-04-07T21:39:14.262Z,9.80
2019-04-07T21:44:28.535Z,9.70
2019-04-07T21:49:43.968Z,9.60
2019-04-07T21:54:55.598Z,9.40
2019-04-07T22:00:09.207Z,9.20
2019-04-07T22:05:25.958Z,9.10
2019-04-07T22:10:31.899Z,8.90
2019-04-07T22:15:45.819Z,8.70
2019-04-07T22:20:51.263Z,8.70
2019-04-07T22:25:54.734Z,8.60
2019-04-07T22:30:59.572Z,8.50
2019-04-07T22:36:04.400Z,8.40
2019-04-07T22:41:10.139Z,8.30
2019-04-07T22:46:19.520Z,8.20
2019-04-07T22:51:21.421Z,8.10
2019-04-07T22:56:26.259Z,8.00
2019-04-07T23:01:31.348Z,7.80
2019-04-07T23:06:36.354Z,7.70
2019-04-07T23:11:41.106Z,7.50
2019-04-07T23:16:46.457Z,7.40
2019-04-07T23:21:51.821Z,7.30
2019-04-07T23:26:56.470Z,7.20
2019-04-07T23:32:03.943Z,7.10
2019-04-07T23:37:08.887Z,7.00
2019-04-07T23:42:14.466Z,7.00
2019-04-07T23:47:19.536Z,6.90
2019-04-07T23:52:25.138Z,6.80
2019-04-07T23:57:30.258Z,6.70
